Time;durP1;ratioP1;P1;durP2;ratioP2;P2;SDS_P1;SDS_P2;PMS_P1;PMS_P2;Temp;Humidity;BMP_temperature;BMP_pressure;BME280_temperature;BME280_humidity;BME280_pressure;Samples;Min_cycle;Max_cycle;Signal;HPM_P1;HPM_P2
2022/06/09 00:00:11;;;;;;;;;2.25;2.00;;;;;;;;5039553;28;8874;-78
2022/06/09 00:02:43;;;;;;;;;3.00;2.00;;;;;;;;5030691;28;8869;-79
2022/06/09 00:05:13;;;;;;;;;3.75;2.00;;;;;;;;5034625;28;8893;-79
2022/06/09 00:07:41;;;;;;;;;3.25;3.25;;;;;;;;5031970;28;8881;-79
2022/06/09 00:10:11;;;;;;;;;2.00;2.00;;;;;;;;5031338;28;8887;-77
2022/06/09 00:12:39;;;;;;;;;6.50;2.00;;;;;;;;5034385;28;9756;-81
2022/06/09 00:15:09;;;;;;;;;5.25;2.75;;;;;;;;5032812;28;8874;-81
2022/06/09 00:17:37;;;;;;;;;3.75;2.75;;;;;;;;5030925;28;9020;-77
2022/06/09 00:20:05;;;;;;;;;4.00;3.00;;;;;;;;5031554;28;10237;-77
2022/06/09 00:22:35;;;;;;;;;2.00;2.00;;;;;;;;5028074;28;8877;-78
2022/06/09 00:25:03;;;;;;;;;2.75;2.75;;;;;;;;5029826;28;8867;-78
2022/06/09 00:27:30;;;;;;;;;2.75;2.00;;;;;;;;5027851;28;8874;-78
2022/06/09 00:29:58;;;;;;;;;2.50;1.75;;;;;;;;5032629;28;8881;-79
2022/06/09 00:32:26;;;;;;;;;3.75;2.00;;;;;;;;5032165;28;8822;-78
2022/06/09 00:34:54;;;;;;;;;3.75;2.00;;;;;;;;5032283;28;8889;-79
2022/06/09 00:37:21;;;;;;;;;1.75;1.75;;;;;;;;5028373;28;8896;-78
2022/06/09 00:39:50;;;;;;;;;3.50;2.00;;;;;;;;5031512;28;9836;-79
2022/06/09 00:42:17;;;;;;;;;1.50;1.50;;;;;;;;5030993;28;8857;-79
2022/06/09 00:44:45;;;;;;;;;3.00;2.00;;;;;;;;5035024;28;8890;-79
2022/06/09 00:47:20;;;;;;;;;1.50;1.50;;;;;;;;5031863;28;8863;-78
2022/06/09 00:49:56;;;;;;;;;6.50;3.25;;;;;;;;5049213;28;8867;-78
2022/06/09 00:52:26;;;;;;;;;4.00;2.25;;;;;;;;5033845;28;8895;-78
2022/06/09 00:54:58;;;;;;;;;2.75;2.75;;;;;;;;5031062;28;8862;-79
2022/06/09 00:57:29;;;;;;;;;3.00;1.00;;;;;;;;5030863;28;8874;-77
2022/06/09 00:59:58;;;;;;;;;2.25;2.25;;;;;;;;5040342;28;8877;-79
2022/06/09 01:02:27;;;;;;;;;1.25;1.25;;;;;;;;5036739;28;8885;-77
2022/06/09 01:04:54;;;;;;;;;2.50;2.50;;;;;;;;5034658;28;8862;-77
2022/06/09 01:07:24;;;;;;;;;4.00;3.00;;;;;;;;5034107;28;8898;-78
2022/06/09 01:09:51;;;;;;;;;6.33;2.67;;;;;;;;5031245;28;8865;-78
2022/06/09 01:12:26;;;;;;;;;2.00;2.00;;;;;;;;5034331;28;9784;-77
2022/06/09 01:14:54;;;;;;;;;5.50;3.00;;;;;;;;5034948;28;8867;-78
2022/06/09 01:17:29;;;;;;;;;2.00;2.00;;;;;;;;5039337;28;8874;-79
2022/06/09 01:20:15;;;;;;;;;4.00;2.00;;;;;;;;5031891;28;9199;-77
2022/06/09 01:23:06;;;;;;;;;2.00;1.00;;;;;;;;5038446;28;9068;-78
2022/06/09 01:25:52;;;;;;;;;4.67;3.00;;;;;;;;5033534;28;9014;-78
2022/06/09 01:28:50;;;;;;;;;2.25;2.25;;;;;;;;5033544;28;8973;-79
2022/06/09 01:31:24;;;;;;;;;3.50;2.25;;;;;;;;5036352;28;8932;-79
2022/06/09 01:33:58;;;;;;;;;2.00;2.00;;;;;;;;5034599;28;8900;-79
2022/06/09 01:36:29;;;;;;;;;8.00;3.00;;;;;;;;5038672;28;8980;-78
2022/06/09 01:38:58;;;;;;;;;3.00;3.00;;;;;;;;5031419;28;9123;-78
2022/06/09 01:41:26;;;;;;;;;4.00;2.33;;;;;;;;5031604;28;8958;-77
2022/06/09 01:43:55;;;;;;;;;1.67;1.67;;;;;;;;5034287;28;8972;-78
2022/06/09 01:46:29;;;;;;;;;4.67;2.00;;;;;;;;5033764;28;9019;-78
2022/06/09 01:49:01;;;;;;;;;3.50;2.00;;;;;;;;5034368;28;9671;-79
2022/06/09 01:51:31;;;;;;;;;5.00;3.25;;;;;;;;5034211;28;8878;-78
2022/06/09 01:54:01;;;;;;;;;1.25;1.25;;;;;;;;5030803;28;8909;-78
2022/06/09 01:56:32;;;;;;;;;4.00;1.00;;;;;;;;5035911;28;8871;-77
2022/06/09 01:59:03;;;;;;;;;2.50;2.25;;;;;;;;5030490;28;8875;-78
2022/06/09 02:01:34;;;;;;;;;2.00;2.00;;;;;;;;5032162;28;8811;-78
2022/06/09 02:04:04;;;;;;;;;4.00;2.33;;;;;;;;5032311;28;8873;-77
2022/06/09 02:06:33;;;;;;;;;4.00;3.00;;;;;;;;5034451;28;9051;-78
2022/06/09 02:09:01;;;;;;;;;2.00;2.00;;;;;;;;5034285;28;9065;-77
2022/06/09 02:11:28;;;;;;;;;1.00;1.00;;;;;;;;5034738;28;9036;-78
2022/06/09 02:13:57;;;;;;;;;2.50;2.00;;;;;;;;5033883;28;8973;-78
2022/06/09 02:16:25;;;;;;;;;3.75;3.00;;;;;;;;5032907;28;8904;-78
2022/06/09 02:18:56;;;;;;;;;3.00;1.67;;;;;;;;5035557;28;8870;-79
2022/06/09 02:21:27;;;;;;;;;3.50;3.00;;;;;;;;5030642;28;8980;-77
2022/06/09 02:23:55;;;;;;;;;2.00;2.00;;;;;;;;5033408;28;9014;-77
2022/06/09 02:26:23;;;;;;;;;2.25;2.25;;;;;;;;5029840;28;9532;-78
2022/06/09 02:28:51;;;;;;;;;4.00;2.00;;;;;;;;5029016;28;8997;-79
2022/06/09 02:31:20;;;;;;;;;5.00;3.00;;;;;;;;5028356;28;8973;-79
2022/06/09 02:33:48;;;;;;;;;2.00;2.00;;;;;;;;5033491;28;8862;-79
2022/06/09 02:36:17;;;;;;;;;4.00;2.00;;;;;;;;5034942;28;9070;-78
2022/06/09 02:38:45;;;;;;;;;3.50;2.00;;;;;;;;5036709;28;8864;-78
2022/06/09 02:41:12;;;;;;;;;1.00;1.00;;;;;;;;5034244;28;8875;-78
2022/06/09 02:43:40;;;;;;;;;2.00;2.00;;;;;;;;5031776;28;8883;-78
2022/06/09 02:46:07;;;;;;;;;6.00;4.00;;;;;;;;5034693;28;8858;-79
2022/06/09 02:48:35;;;;;;;;;2.00;2.00;;;;;;;;5032758;28;9017;-79
2022/06/09 02:51:22;;;;;;;;;5.00;4.00;;;;;;;;5031215;28;8998;-78
2022/06/09 02:53:49;;;;;;;;;3.00;3.00;;;;;;;;5038973;28;9207;-78
2022/06/09 02:56:17;;;;;;;;;2.67;2.00;;;;;;;;5032915;28;8965;-78
2022/06/09 02:58:44;;;;;;;;;2.00;2.00;;;;;;;;5033408;28;9053;-79
2022/06/09 03:01:12;;;;;;;;;3.67;2.00;;;;;;;;5033469;28;8985;-78
2022/06/09 03:03:39;;;;;;;;;2.33;1.33;;;;;;;;5012268;28;9056;-77
2022/06/09 03:06:07;;;;;;;;;2.00;2.00;;;;;;;;5032751;28;9000;-77
2022/06/09 03:08:36;;;;;;;;;4.00;2.33;;;;;;;;5031212;28;9039;-79
2022/06/09 03:11:04;;;;;;;;;2.67;2.67;;;;;;;;5029070;28;9136;-76
2022/06/09 03:13:33;;;;;;;;;3.00;3.00;;;;;;;;5034422;28;9038;-76
2022/06/09 03:16:00;;;;;;;;;2.00;2.00;;;;;;;;5036260;28;9119;-79
2022/06/09 03:18:27;;;;;;;;;4.67;3.00;;;;;;;;5033937;28;9940;-77
2022/06/09 03:20:55;;;;;;;;;1.67;1.67;;;;;;;;5032323;28;9246;-79
2022/06/09 03:23:22;;;;;;;;;2.00;2.00;;;;;;;;5034938;28;9037;-79
2022/06/09 03:25:51;;;;;;;;;2.33;2.00;;;;;;;;5034334;28;8978;-80
2022/06/09 03:28:18;;;;;;;;;2.00;2.00;;;;;;;;5028197;28;9106;-81
2022/06/09 03:30:45;;;;;;;;;4.00;2.00;;;;;;;;5027785;28;9203;-77
2022/06/09 03:33:13;;;;;;;;;4.00;3.00;;;;;;;;5011387;28;9238;-79
2022/06/09 03:35:40;;;;;;;;;1.00;1.00;;;;;;;;5015124;28;9223;-76
2022/06/09 03:38:07;;;;;;;;;2.00;2.00;;;;;;;;5015769;28;9045;-77
2022/06/09 03:40:35;;;;;;;;;2.33;2.33;;;;;;;;5011227;28;9227;-78
2022/06/09 03:43:03;;;;;;;;;1.00;1.00;;;;;;;;5010498;28;9107;-77
2022/06/09 03:45:31;;;;;;;;;2.00;2.00;;;;;;;;5010849;28;8995;-79
2022/06/09 03:47:58;;;;;;;;;2.67;2.67;;;;;;;;5010898;28;9077;-78
2022/06/09 03:50:28;;;;;;;;;2.00;2.00;;;;;;;;5009356;28;9211;-77
2022/06/09 03:52:56;;;;;;;;;2.33;2.00;;;;;;;;5013660;28;9807;-76
2022/06/09 03:55:23;;;;;;;;;2.67;1.33;;;;;;;;5013278;28;9293;-75
2022/06/09 03:57:51;;;;;;;;;5.67;2.00;;;;;;;;5012087;28;9833;-76
2022/06/09 04:00:23;;;;;;;;;1.33;1.33;;;;;;;;4995307;28;9374;-76
2022/06/09 04:02:51;;;;;;;;;2.00;2.00;;;;;;;;5010399;28;9424;-78
2022/06/09 04:05:18;;;;;;;;;2.25;1.75;;;;;;;;5009421;28;9547;-78
2022/06/09 04:07:46;;;;;;;;;4.67;2.00;;;;;;;;5010723;28;9526;-77
2022/06/09 04:10:18;;;;;;;;;2.00;2.00;;;;;;;;5008323;28;10101;-76
2022/06/09 04:12:45;;;;;;;;;3.00;2.00;;;;;;;;5014086;28;9445;-76
2022/06/09 04:15:14;;;;;;;;;3.67;2.00;;;;;;;;5015169;28;9346;-76
2022/06/09 04:17:43;;;;;;;;;2.00;2.00;;;;;;;;5012761;28;9416;-77
2022/06/09 04:20:11;;;;;;;;;2.67;1.00;;;;;;;;5014565;28;9463;-77
2022/06/09 04:22:38;;;;;;;;;2.00;2.00;;;;;;;;5013835;28;9230;-76
2022/06/09 04:25:07;;;;;;;;;5.75;3.00;;;;;;;;5013421;28;9459;-76
2022/06/09 04:27:34;;;;;;;;;2.75;2.00;;;;;;;;5010382;28;9501;-78
2022/06/09 04:30:02;;;;;;;;;3.00;3.00;;;;;;;;5020304;28;9575;-78
2022/06/09 04:32:29;;;;;;;;;3.25;3.25;;;;;;;;5016656;28;10035;-76
2022/06/09 04:34:58;;;;;;;;;1.67;1.33;;;;;;;;5009899;28;9556;-76
2022/06/09 04:37:59;;;;;;;;;6.00;4.00;;;;;;;;5017375;28;9358;-78
2022/06/09 04:40:13;;;;;;;;;2.67;2.67;;;;;;;;5019279;28;10113;-75
2022/06/09 04:42:40;;;;;;;;;7.00;4.00;;;;;;;;5021204;28;9407;-76
2022/06/09 04:45:09;;;;;;;;;4.00;3.00;;;;;;;;5018303;28;9300;-76
2022/06/09 04:47:36;;;;;;;;;3.00;3.00;;;;;;;;5015568;28;9299;-77
2022/06/09 04:50:07;;;;;;;;;7.00;3.00;;;;;;;;5012366;28;9291;-76
2022/06/09 04:52:36;;;;;;;;;4.00;2.00;;;;;;;;5016108;28;9452;-77
2022/06/09 04:55:05;;;;;;;;;3.00;3.00;;;;;;;;5012706;28;9216;-77
2022/06/09 04:57:32;;;;;;;;;4.33;3.00;;;;;;;;5010278;28;9032;-77
2022/06/09 05:00:00;;;;;;;;;7.67;3.67;;;;;;;;5014081;28;9113;-78
2022/06/09 05:02:28;;;;;;;;;5.67;3.33;;;;;;;;5014682;28;9134;-78
2022/06/09 05:04:55;;;;;;;;;6.33;3.67;;;;;;;;5011635;28;9307;-77
2022/06/09 05:07:25;;;;;;;;;3.00;2.33;;;;;;;;5015209;28;9213;-77
2022/06/09 05:09:52;;;;;;;;;3.00;3.00;;;;;;;;5018254;28;9161;-79
2022/06/09 05:12:20;;;;;;;;;4.67;4.67;;;;;;;;5013690;28;9114;-77
2022/06/09 05:14:47;;;;;;;;;8.00;5.00;;;;;;;;5012106;28;9175;-78
2022/06/09 05:17:15;;;;;;;;;3.00;3.00;;;;;;;;5015480;28;9194;-78
2022/06/09 05:19:42;;;;;;;;;8.00;4.00;;;;;;;;5016921;28;9030;-80
2022/06/09 05:22:10;;;;;;;;;3.00;3.00;;;;;;;;5014613;28;9774;-79
2022/06/09 05:24:39;;;;;;;;;2.00;2.00;;;;;;;;5015886;28;8856;-80
2022/06/09 05:27:06;;;;;;;;;3.33;3.33;;;;;;;;5014981;28;8918;-79
2022/06/09 05:29:33;;;;;;;;;3.33;3.33;;;;;;;;5017235;28;9078;-79
2022/06/09 05:32:02;;;;;;;;;5.00;5.00;;;;;;;;5014855;28;8978;-80
2022/06/09 05:34:30;;;;;;;;;2.25;2.00;;;;;;;;5016203;28;9060;-82
2022/06/09 05:36:57;;;;;;;;;5.00;4.00;;;;;;;;5011720;28;8866;-84
2022/06/09 05:45:10;;;;;;;;;5.75;4.00;;;;;;;;5018891;28;9701;-78
2022/06/09 05:47:37;;;;;;;;;3.75;3.75;;;;;;;;5019298;28;8899;-78
2022/06/09 05:50:06;;;;;;;;;4.00;4.00;;;;;;;;5018547;28;8864;-79
2022/06/09 05:52:33;;;;;;;;;3.00;3.00;;;;;;;;5017393;28;8860;-80
2022/06/09 05:55:01;;;;;;;;;2.50;2.50;;;;;;;;5018941;28;8848;-80
2022/06/09 05:57:30;;;;;;;;;5.00;5.00;;;;;;;;5015157;28;8910;-80
2022/06/09 05:59:58;;;;;;;;;5.00;3.00;;;;;;;;5014087;28;8872;-80
2022/06/09 06:02:27;;;;;;;;;3.00;3.00;;;;;;;;5015023;28;8800;-79
2022/06/09 06:04:55;;;;;;;;;2.00;2.00;;;;;;;;5017151;28;8872;-80
2022/06/09 06:07:22;;;;;;;;;4.75;4.75;;;;;;;;5019439;28;8875;-80
2022/06/09 06:09:49;;;;;;;;;8.25;4.00;;;;;;;;5014874;28;8868;-79
2022/06/09 06:12:17;;;;;;;;;4.00;4.00;;;;;;;;5018604;28;8922;-81
2022/06/09 06:14:46;;;;;;;;;4.25;4.25;;;;;;;;5011723;28;8867;-80
2022/06/09 06:17:13;;;;;;;;;7.00;3.50;;;;;;;;5016136;28;8892;-79
2022/06/09 06:19:41;;;;;;;;;3.00;3.00;;;;;;;;5012307;28;8884;-74
2022/06/09 06:22:08;;;;;;;;;3.25;3.25;;;;;;;;5011127;28;10892;-74
2022/06/09 06:24:35;;;;;;;;;5.25;3.50;;;;;;;;5013428;28;9605;-74
2022/06/09 06:27:03;;;;;;;;;5.00;3.75;;;;;;;;5013130;28;8860;-73
2022/06/09 06:29:30;;;;;;;;;4.50;3.00;;;;;;;;5014489;28;8848;-73
2022/06/09 06:31:59;;;;;;;;;3.75;3.75;;;;;;;;5029209;28;9713;-73
2022/06/09 06:34:26;;;;;;;;;5.25;2.75;;;;;;;;5037032;28;8828;-72
2022/06/09 06:36:53;;;;;;;;;1.25;1.00;;;;;;;;5031178;28;9015;-72
2022/06/09 06:39:21;;;;;;;;;3.00;2.50;;;;;;;;5035386;28;8886;-72
2022/06/09 06:41:48;;;;;;;;;8.25;3.00;;;;;;;;5035426;28;10177;-73
2022/06/09 06:44:15;;;;;;;;;3.50;3.50;;;;;;;;5037129;28;8861;-72
2022/06/09 06:46:42;;;;;;;;;5.25;3.00;;;;;;;;5019881;28;8863;-70
2022/06/09 06:49:13;;;;;;;;;4.25;4.00;;;;;;;;5029919;28;8887;-71
2022/06/09 06:51:41;;;;;;;;;4.00;2.75;;;;;;;;5034401;28;8852;-72
2022/06/09 06:54:08;;;;;;;;;4.00;4.00;;;;;;;;5027845;28;8871;-72
2022/06/09 06:56:37;;;;;;;;;7.25;5.00;;;;;;;;5036646;28;8877;-74
2022/06/09 06:59:04;;;;;;;;;3.75;3.00;;;;;;;;5036639;28;8849;-73
2022/06/09 07:01:32;;;;;;;;;4.00;4.00;;;;;;;;5021194;28;8868;-75
2022/06/09 07:03:59;;;;;;;;;3.25;3.25;;;;;;;;5012560;28;8988;-77
2022/06/09 07:06:28;;;;;;;;;4.00;4.00;;;;;;;;5017233;28;8906;-75
2022/06/09 07:08:55;;;;;;;;;3.00;3.00;;;;;;;;5013653;28;8874;-74
2022/06/09 07:11:23;;;;;;;;;4.00;3.00;;;;;;;;5014450;28;8872;-73
2022/06/09 07:13:50;;;;;;;;;3.75;3.00;;;;;;;;5012476;28;8892;-74
2022/06/09 07:16:18;;;;;;;;;2.75;2.75;;;;;;;;5018352;28;8953;-73
2022/06/09 07:18:45;;;;;;;;;2.75;2.50;;;;;;;;5012080;28;10188;-72
2022/06/09 07:21:12;;;;;;;;;5.50;3.25;;;;;;;;5014221;28;8998;-72
2022/06/09 07:23:41;;;;;;;;;3.25;3.00;;;;;;;;5013443;28;10181;-75
2022/06/09 07:26:09;;;;;;;;;3.25;3.25;;;;;;;;4997575;28;8931;-71
2022/06/09 07:28:36;;;;;;;;;5.00;5.00;;;;;;;;5008985;28;8906;-73
2022/06/09 07:31:05;;;;;;;;;5.00;3.00;;;;;;;;5011523;28;8804;-72
2022/06/09 07:33:35;;;;;;;;;4.00;4.00;;;;;;;;5010175;28;8876;-72
2022/06/09 07:36:04;;;;;;;;;4.00;3.75;;;;;;;;5013992;28;9661;-73
2022/06/09 07:38:31;;;;;;;;;3.00;3.00;;;;;;;;5011893;28;8900;-72
2022/06/09 07:41:01;;;;;;;;;4.50;3.00;;;;;;;;5015004;28;8868;-73
2022/06/09 07:43:28;;;;;;;;;2.25;2.25;;;;;;;;5008781;28;8863;-72
2022/06/09 07:45:55;;;;;;;;;2.50;2.00;;;;;;;;5013884;28;8880;-73
2022/06/09 07:48:23;;;;;;;;;5.00;5.00;;;;;;;;5007672;28;8967;-74
2022/06/09 07:50:52;;;;;;;;;4.25;2.75;;;;;;;;5007303;28;8952;-73
2022/06/09 07:53:21;;;;;;;;;6.25;3.25;;;;;;;;5007669;28;8894;-71
2022/06/09 07:55:49;;;;;;;;;6.00;3.00;;;;;;;;5012638;28;8890;-71
2022/06/09 07:58:20;;;;;;;;;4.00;4.00;;;;;;;;5013494;28;8987;-74
2022/06/09 08:00:48;;;;;;;;;4.00;4.00;;;;;;;;5022298;28;8891;-75
2022/06/09 08:03:19;;;;;;;;;5.25;4.75;;;;;;;;5036281;28;8879;-71
2022/06/09 08:05:47;;;;;;;;;4.75;3.75;;;;;;;;5034011;28;9769;-73
2022/06/09 08:08:15;;;;;;;;;3.00;3.00;;;;;;;;5031309;28;8863;-73
2022/06/09 08:10:43;;;;;;;;;4.25;4.25;;;;;;;;5041319;28;8902;-75
2022/06/09 08:13:11;;;;;;;;;6.75;2.75;;;;;;;;5035874;28;8882;-72
2022/06/09 08:15:41;;;;;;;;;3.25;2.50;;;;;;;;5033400;28;9417;-72
2022/06/09 08:18:08;;;;;;;;;6.00;3.25;;;;;;;;5029552;28;8854;-72
2022/06/09 08:20:38;;;;;;;;;3.00;3.00;;;;;;;;5035040;28;8978;-73
2022/06/09 08:23:08;;;;;;;;;4.00;4.00;;;;;;;;5037370;28;8895;-73
2022/06/09 08:25:35;;;;;;;;;5.00;4.25;;;;;;;;5036385;28;8874;-74
2022/06/09 08:28:04;;;;;;;;;2.00;2.00;;;;;;;;5036271;28;8897;-74
2022/06/09 08:30:31;;;;;;;;;4.75;3.00;;;;;;;;5033036;28;8954;-74
2022/06/09 08:33:00;;;;;;;;;3.25;3.25;;;;;;;;5038862;28;8885;-74
2022/06/09 08:35:29;;;;;;;;;5.00;2.00;;;;;;;;5033874;28;9639;-73
2022/06/09 08:37:56;;;;;;;;;3.00;3.00;;;;;;;;5032169;28;8866;-73
2022/06/09 08:40:25;;;;;;;;;4.00;3.00;;;;;;;;5034596;28;8869;-76
2022/06/09 08:43:08;;;;;;;;;2.25;2.25;;;;;;;;5034778;28;9666;-73
2022/06/09 08:45:38;;;;;;;;;2.50;2.50;;;;;;;;5042626;28;8960;-73
2022/06/09 08:48:11;;;;;;;;;4.50;2.00;;;;;;;;5037883;28;8881;-72
2022/06/09 08:50:42;;;;;;;;;5.80;2.00;;;;;;;;5027696;28;8889;-72
2022/06/09 08:53:14;;;;;;;;;4.00;4.00;;;;;;;;5034011;28;8859;-73
2022/06/09 08:55:45;;;;;;;;;2.00;2.00;;;;;;;;5035869;28;8874;-73
2022/06/09 08:58:18;;;;;;;;;3.00;1.20;;;;;;;;5039110;28;9307;-73
2022/06/09 09:00:51;;;;;;;;;2.00;2.00;;;;;;;;5040314;28;8799;-73
2022/06/09 09:03:23;;;;;;;;;1.80;1.80;;;;;;;;5043032;28;8989;-74
2022/06/09 09:05:56;;;;;;;;;3.00;3.00;;;;;;;;5037118;28;8867;-73
2022/06/09 09:08:24;;;;;;;;;3.60;2.40;;;;;;;;5042462;28;8862;-73
2022/06/09 09:11:16;;;;;;;;;4.60;3.00;;;;;;;;5043435;28;8862;-73
2022/06/09 09:13:54;;;;;;;;;3.20;3.20;;;;;;;;5040208;28;8881;-73
2022/06/09 09:16:25;;;;;;;;;2.40;2.00;;;;;;;;5034266;28;8883;-73
2022/06/09 09:18:56;;;;;;;;;3.40;3.00;;;;;;;;5040543;28;8874;-73
2022/06/09 09:21:49;;;;;;;;;5.80;3.00;;;;;;;;5026495;28;8938;-72
2022/06/09 09:24:23;;;;;;;;;5.00;2.20;;;;;;;;5029911;28;8928;-72
2022/06/09 09:27:00;;;;;;;;;1.80;1.80;;;;;;;;5034320;28;8854;-73
2022/06/09 09:29:32;;;;;;;;;4.00;2.50;;;;;;;;5030420;28;8886;-72
2022/06/09 09:32:03;;;;;;;;;4.75;3.00;;;;;;;;5034132;28;8835;-73
2022/06/09 09:34:34;;;;;;;;;2.00;1.25;;;;;;;;5028516;28;8877;-72
2022/06/09 09:37:18;;;;;;;;;4.00;3.00;;;;;;;;5028467;28;8859;-72
2022/06/09 09:39:49;;;;;;;;;2.00;2.00;;;;;;;;5029801;28;8936;-73
2022/06/09 09:42:19;;;;;;;;;2.20;2.00;;;;;;;;5040554;28;9473;-73
2022/06/09 09:45:01;;;;;;;;;4.00;3.00;;;;;;;;5027021;28;9651;-73
2022/06/09 09:47:29;;;;;;;;;2.40;2.20;;;;;;;;5036660;28;8886;-73
2022/06/09 09:50:04;;;;;;;;;2.60;1.40;;;;;;;;5029998;28;8935;-73
2022/06/09 09:52:41;;;;;;;;;3.00;3.00;;;;;;;;5038020;28;8878;-73
2022/06/09 09:55:38;;;;;;;;;1.80;1.80;;;;;;;;5035306;28;8862;-73
2022/06/09 09:58:25;;;;;;;;;2.00;2.00;;;;;;;;5040260;28;8959;-74
2022/06/09 10:00:55;;;;;;;;;1.40;1.20;;;;;;;;5033679;28;8816;-75
2022/06/09 10:09:13;;;;;;;;;3.60;2.00;;;;;;;;5023559;28;8843;-74
2022/06/09 10:11:54;;;;;;;;;3.00;1.00;;;;;;;;5021852;28;8863;-75
2022/06/09 10:14:43;;;;;;;;;3.60;2.00;;;;;;;;5022286;28;8933;-75
2022/06/09 10:17:30;;;;;;;;;3.60;2.00;;;;;;;;5018818;28;8876;-75
2022/06/09 10:20:05;;;;;;;;;2.00;2.00;;;;;;;;5022660;28;8856;-74
2022/06/09 10:22:37;;;;;;;;;4.40;2.00;;;;;;;;5017176;28;8888;-74
2022/06/09 10:25:18;;;;;;;;;1.40;1.40;;;;;;;;5024080;28;8883;-74
2022/06/09 10:27:48;;;;;;;;;1.80;1.80;;;;;;;;5015923;28;8871;-75
2022/06/09 10:30:19;;;;;;;;;2.00;2.00;;;;;;;;5011297;28;8892;-74
2022/06/09 10:32:50;;;;;;;;;3.60;2.00;;;;;;;;5004818;28;8904;-76
2022/06/09 10:35:24;;;;;;;;;11.25;10.50;;;;;;;;5015416;28;9669;-76
2022/06/09 10:37:56;;;;;;;;;1.00;1.00;;;;;;;;5017979;28;8887;-76
2022/06/09 10:40:30;;;;;;;;;3.00;1.00;;;;;;;;5018749;28;8889;-75
2022/06/09 10:43:02;;;;;;;;;2.80;2.00;;;;;;;;5015545;28;8875;-72
2022/06/09 10:45:36;;;;;;;;;2.00;2.00;;;;;;;;5016659;28;8886;-76
2022/06/09 10:56:42;;;;;;;;;3.00;3.00;;;;;;;;5014354;28;8840;-75
2022/06/09 10:59:14;;;;;;;;;2.00;1.00;;;;;;;;5012804;28;8896;-76
2022/06/09 11:01:42;;;;;;;;;0.80;0.80;;;;;;;;5016812;28;8866;-75
2022/06/09 11:04:15;;;;;;;;;1.00;1.00;;;;;;;;5015458;28;8852;-75
2022/06/09 11:06:56;;;;;;;;;4.00;2.80;;;;;;;;5017259;28;8914;-75
2022/06/09 11:09:32;;;;;;;;;4.60;2.00;;;;;;;;5007549;28;8879;-74
2022/06/09 11:12:10;;;;;;;;;2.20;1.00;;;;;;;;5015393;28;8892;-74
2022/06/09 11:14:49;;;;;;;;;2.00;2.00;;;;;;;;5011421;28;8871;-75
2022/06/09 11:17:27;;;;;;;;;2.40;2.00;;;;;;;;5018916;28;8836;-73
2022/06/09 11:20:13;;;;;;;;;1.00;1.00;;;;;;;;5019282;28;8874;-75
2022/06/09 11:23:10;;;;;;;;;1.80;1.80;;;;;;;;5013256;28;8883;-76
2022/06/09 11:25:48;;;;;;;;;1.60;1.60;;;;;;;;5006254;28;8871;-78
2022/06/09 11:28:36;;;;;;;;;0.20;0.20;;;;;;;;5001110;28;8921;-75
2022/06/09 11:31:25;;;;;;;;;0.40;0.40;;;;;;;;5020869;28;8817;-74
2022/06/09 11:34:16;;;;;;;;;1.80;1.60;;;;;;;;5027146;28;8879;-74
2022/06/09 11:36:50;;;;;;;;;2.00;2.00;;;;;;;;5026100;28;8910;-73
2022/06/09 11:39:32;;;;;;;;;2.40;2.00;;;;;;;;5034039;28;8963;-72
2022/06/09 11:42:05;;;;;;;;;1.80;1.00;;;;;;;;5031373;28;8904;-73
2022/06/09 11:44:35;;;;;;;;;2.00;1.80;;;;;;;;5034514;28;8905;-73
2022/06/09 11:47:05;;;;;;;;;2.20;1.00;;;;;;;;5033424;28;8849;-73
2022/06/09 11:49:36;;;;;;;;;1.00;1.00;;;;;;;;5033242;28;8906;-73
2022/06/09 11:52:06;;;;;;;;;1.80;1.80;;;;;;;;5037086;28;8873;-72
2022/06/09 11:54:44;;;;;;;;;2.80;1.20;;;;;;;;5037134;28;8853;-73
2022/06/09 11:57:50;;;;;;;;;1.00;1.00;;;;;;;;5031860;28;8892;-73
2022/06/09 12:00:37;;;;;;;;;2.40;2.40;;;;;;;;5037270;28;8879;-72
2022/06/09 12:03:20;;;;;;;;;1.00;1.00;;;;;;;;5013109;28;8878;-71
2022/06/09 12:05:51;;;;;;;;;1.00;1.00;;;;;;;;5010550;28;8890;-72
2022/06/09 12:08:30;;;;;;;;;0.80;0.80;;;;;;;;5014569;28;8965;-73
2022/06/09 12:11:07;;;;;;;;;1.60;1.00;;;;;;;;5012161;28;9057;-75
2022/06/09 12:14:10;;;;;;;;;1.00;1.00;;;;;;;;5016813;28;8984;-75
2022/06/09 12:16:41;;;;;;;;;1.00;1.00;;;;;;;;5009566;28;8891;-74
2022/06/09 12:19:23;;;;;;;;;1.00;0.40;;;;;;;;5007576;28;8886;-75
2022/06/09 12:21:53;;;;;;;;;0.80;0.80;;;;;;;;5012108;28;8871;-73
2022/06/09 12:24:56;;;;;;;;;0.40;0.40;;;;;;;;5014263;28;8887;-72
2022/06/09 12:27:42;;;;;;;;;1.80;1.00;;;;;;;;5015347;28;8860;-72
2022/06/09 12:30:37;;;;;;;;;1.60;1.60;;;;;;;;5010104;28;8887;-74
2022/06/09 12:33:26;;;;;;;;;1.60;0.00;;;;;;;;5020031;28;8993;-74
2022/06/09 12:35:55;;;;;;;;;0.00;0.00;;;;;;;;5029466;28;8885;-73
2022/06/09 12:38:26;;;;;;;;;0.40;0.00;;;;;;;;5032792;28;8859;-72
2022/06/09 12:40:56;;;;;;;;;2.20;0.60;;;;;;;;5031307;28;8873;-73
2022/06/09 12:43:32;;;;;;;;;3.00;1.00;;;;;;;;5031719;28;8870;-73
2022/06/09 12:46:20;;;;;;;;;3.00;2.00;;;;;;;;5032662;28;8887;-71
2022/06/09 12:48:49;;;;;;;;;1.00;1.00;;;;;;;;5036461;28;8940;-72
2022/06/09 12:51:24;;;;;;;;;1.60;1.60;;;;;;;;5028306;28;8924;-72
2022/06/09 12:53:57;;;;;;;;;0.40;0.40;;;;;;;;5034299;28;9674;-73
2022/06/09 12:56:36;;;;;;;;;1.00;1.00;;;;;;;;5039414;28;8855;-73
2022/06/09 12:59:16;;;;;;;;;0.00;0.00;;;;;;;;5037584;28;8891;-72
2022/06/09 13:01:54;;;;;;;;;1.00;1.00;;;;;;;;5032640;28;8813;-72
2022/06/09 13:04:26;;;;;;;;;1.00;1.00;;;;;;;;5030947;28;8850;-75
2022/06/09 13:06:56;;;;;;;;;2.40;1.20;;;;;;;;5042303;28;8909;-73
2022/06/09 13:09:27;;;;;;;;;2.00;2.00;;;;;;;;5041223;28;8867;-72
2022/06/09 13:14:41;;;;;;;;;1.00;1.00;;;;;;;;5036910;28;8834;-73
2022/06/09 13:17:15;;;;;;;;;1.00;1.00;;;;;;;;5035027;28;8918;-73
2022/06/09 13:19:43;;;;;;;;;2.40;2.40;;;;;;;;5039719;28;8983;-70
2022/06/09 13:22:15;;;;;;;;;1.00;1.00;;;;;;;;5039897;28;8870;-72
2022/06/09 13:24:45;;;;;;;;;3.40;2.00;;;;;;;;5029187;28;8850;-73
2022/06/09 13:27:16;;;;;;;;;2.00;2.00;;;;;;;;5031599;28;8855;-73
2022/06/09 13:29:57;;;;;;;;;1.00;1.00;;;;;;;;5029453;28;10078;-74
2022/06/09 13:32:30;;;;;;;;;1.00;1.00;;;;;;;;5037387;28;8819;-73
2022/06/09 13:35:00;;;;;;;;;1.00;1.00;;;;;;;;5034292;28;9651;-74
2022/06/09 13:37:41;;;;;;;;;1.00;1.00;;;;;;;;5039166;28;8887;-73
2022/06/09 13:40:15;;;;;;;;;3.00;1.20;;;;;;;;5036090;28;8867;-72
2022/06/09 13:42:49;;;;;;;;;2.00;2.00;;;;;;;;5035650;28;9005;-72
2022/06/09 13:45:23;;;;;;;;;1.00;1.00;;;;;;;;5029951;28;8857;-72
2022/06/09 13:48:24;;;;;;;;;3.80;1.00;;;;;;;;5035536;28;8914;-72
2022/06/09 13:51:10;;;;;;;;;1.00;1.00;;;;;;;;4954820;28;8986;-72
2022/06/09 13:53:46;;;;;;;;;1.00;1.00;;;;;;;;5026570;28;8885;-71
2022/06/09 13:56:14;;;;;;;;;2.60;1.00;;;;;;;;5031622;28;8870;-72
2022/06/09 13:58:42;;;;;;;;;0.20;0.20;;;;;;;;5039760;28;8882;-73
2022/06/09 14:01:09;;;;;;;;;2.00;2.00;;;;;;;;5033138;28;8815;-72
2022/06/09 14:03:43;;;;;;;;;1.80;1.80;;;;;;;;5035816;28;8877;-71
2022/06/09 14:06:13;;;;;;;;;2.20;1.60;;;;;;;;5035964;28;8986;-72
2022/06/09 14:08:44;;;;;;;;;2.60;1.00;;;;;;;;5034368;28;8871;-71
2022/06/09 14:11:15;;;;;;;;;1.80;1.80;;;;;;;;5036995;28;8924;-71
2022/06/09 14:13:44;;;;;;;;;3.60;0.80;;;;;;;;5033612;28;9674;-73
2022/06/09 14:16:13;;;;;;;;;1.00;1.00;;;;;;;;5036563;28;8869;-72
2022/06/09 14:18:42;;;;;;;;;1.20;1.20;;;;;;;;5036635;28;8890;-71
2022/06/09 14:21:10;;;;;;;;;3.00;1.00;;;;;;;;5039786;28;8992;-71
2022/06/09 14:23:37;;;;;;;;;2.00;2.00;;;;;;;;5034996;28;8859;-70
2022/06/09 14:26:06;;;;;;;;;1.80;1.00;;;;;;;;5034491;28;8873;-71
2022/06/09 14:28:35;;;;;;;;;3.00;1.00;;;;;;;;5034650;28;8861;-72
2022/06/09 14:31:03;;;;;;;;;2.00;0.80;;;;;;;;5033738;28;9661;-71
2022/06/09 14:33:30;;;;;;;;;1.00;1.00;;;;;;;;5040570;28;8855;-71
2022/06/09 14:35:59;;;;;;;;;4.00;2.00;;;;;;;;5034475;28;8843;-72
2022/06/09 14:38:27;;;;;;;;;1.80;0.20;;;;;;;;5039518;28;8851;-71
2022/06/09 14:40:55;;;;;;;;;2.00;2.00;;;;;;;;5035902;28;8898;-72
2022/06/09 14:43:23;;;;;;;;;1.40;1.00;;;;;;;;5039985;28;8877;-71
2022/06/09 14:45:52;;;;;;;;;2.00;2.00;;;;;;;;5036046;28;8994;-71
2022/06/09 14:48:23;;;;;;;;;2.80;1.60;;;;;;;;5033416;28;9028;-72
2022/06/09 14:50:50;;;;;;;;;1.00;1.00;;;;;;;;5034163;28;8878;-74
2022/06/09 14:53:22;;;;;;;;;1.00;1.00;;;;;;;;5036837;28;9334;-73
2022/06/09 14:55:50;;;;;;;;;0.00;0.00;;;;;;;;5035044;28;8889;-73
2022/06/09 14:58:20;;;;;;;;;0.00;0.00;;;;;;;;5039615;28;8874;-73
2022/06/09 15:00:47;;;;;;;;;2.00;2.00;;;;;;;;5039625;28;8803;-73
2022/06/09 15:03:15;;;;;;;;;2.00;2.00;;;;;;;;5036735;28;8875;-71
2022/06/09 15:05:46;;;;;;;;;1.00;1.00;;;;;;;;5033704;28;8863;-72
2022/06/09 15:08:14;;;;;;;;;1.00;1.00;;;;;;;;5038515;28;8859;-72
2022/06/09 15:10:45;;;;;;;;;2.40;1.00;;;;;;;;5034821;28;8999;-72
2022/06/09 15:13:13;;;;;;;;;2.20;1.60;;;;;;;;5037915;28;8989;-72
2022/06/09 15:15:41;;;;;;;;;1.00;1.00;;;;;;;;5032332;28;8865;-74
2022/06/09 15:18:12;;;;;;;;;2.80;1.00;;;;;;;;5038677;28;8887;-75
2022/06/09 15:20:42;;;;;;;;;3.00;1.00;;;;;;;;5032600;28;8884;-74
2022/06/09 15:23:11;;;;;;;;;1.00;1.00;;;;;;;;5036032;28;8881;-71
2022/06/09 15:25:39;;;;;;;;;1.00;1.00;;;;;;;;5036526;28;8859;-73
2022/06/09 15:28:09;;;;;;;;;0.60;0.60;;;;;;;;5037772;28;8885;-75
2022/06/09 15:30:39;;;;;;;;;2.00;2.00;;;;;;;;5033685;28;8844;-77
2022/06/09 15:33:09;;;;;;;;;2.60;1.00;;;;;;;;5027368;28;8934;-74
2022/06/09 15:35:38;;;;;;;;;1.00;1.00;;;;;;;;5034698;28;8855;-74
2022/06/09 15:38:06;;;;;;;;;2.20;1.00;;;;;;;;5034258;28;8867;-72
2022/06/09 15:40:36;;;;;;;;;1.20;1.20;;;;;;;;5035160;28;8874;-72
2022/06/09 15:43:05;;;;;;;;;4.00;2.40;;;;;;;;5038954;28;8884;-73